Time;durP1;ratioP1;P1;durP2;ratioP2;P2;SDS_P1;SDS_P2;PMS_P1;PMS_P2;Temp;Humidity;BMP_temperature;BMP_pressure;BME280_temperature;BME280_humidity;BME280_pressure;Samples;Min_cycle;Max_cycle;Signal;HPM_P1;HPM_P2
2022/09/01 00:00:47;;;;;;;6.90;6.40;;;26.60;62.20;;;;;;5050513;28;20457;-76
2022/09/01 00:03:17;;;;;;;5.93;5.53;;;26.60;62.20;;;;;;5044977;28;20803;-76
2022/09/01 00:05:49;;;;;;;5.80;5.23;;;26.60;62.20;;;;;;5045099;28;20520;-75
2022/09/01 00:08:19;;;;;;;5.10;4.80;;;26.60;62.30;;;;;;5049614;28;20967;-75
2022/09/01 00:10:48;;;;;;;5.87;5.47;;;26.60;62.20;;;;;;5055516;28;20542;-75
2022/09/01 00:13:16;;;;;;;6.40;5.90;;;26.50;62.30;;;;;;5055098;28;20560;-75
2022/09/01 00:15:44;;;;;;;5.10;4.80;;;26.50;62.30;;;;;;5056189;28;20552;-75
2022/09/01 00:18:14;;;;;;;6.20;5.77;;;26.50;62.30;;;;;;5054895;28;20509;-75
2022/09/01 00:20:42;;;;;;;7.03;6.50;;;26.50;62.40;;;;;;5048433;28;20515;-75
2022/09/01 00:23:11;;;;;;;5.70;5.30;;;26.50;62.40;;;;;;5047594;28;20491;-75
2022/09/01 00:25:40;;;;;;;6.13;5.73;;;26.50;62.40;;;;;;5055511;28;20481;-75
2022/09/01 00:28:08;;;;;;;6.17;5.67;;;26.50;62.40;;;;;;5055295;28;20477;-75
2022/09/01 00:30:37;;;;;;;5.50;5.10;;;26.50;62.40;;;;;;5055395;28;20504;-75
2022/09/01 00:33:05;;;;;;;7.63;6.60;;;26.50;62.50;;;;;;5054700;28;21314;-75
2022/09/01 00:35:33;;;;;;;7.83;7.17;;;26.50;62.50;;;;;;5050529;28;20473;-75
2022/09/01 00:38:04;;;;;;;7.77;7.27;;;26.50;62.50;;;;;;5052590;28;20452;-75
2022/09/01 00:40:33;;;;;;;7.30;6.70;;;26.50;62.50;;;;;;5052476;28;20494;-74
2022/09/01 00:43:13;;;;;;;7.67;6.97;;;26.50;62.50;;;;;;5054603;28;20453;-75
2022/09/01 00:45:41;;;;;;;6.63;6.03;;;26.50;62.60;;;;;;5050780;28;20456;-76
2022/09/01 00:48:10;;;;;;;6.83;6.33;;;26.50;62.60;;;;;;5053780;28;20909;-75
2022/09/01 00:50:39;;;;;;;7.40;6.70;;;26.40;62.60;;;;;;5054309;28;20530;-75
2022/09/01 00:53:08;;;;;;;5.13;4.73;;;26.40;62.60;;;;;;5055112;28;20632;-75
2022/09/01 00:55:38;;;;;;;5.93;5.53;;;26.40;62.60;;;;;;5053861;28;20508;-75
2022/09/01 00:58:08;;;;;;;5.83;5.43;;;26.40;62.60;;;;;;5052347;28;20807;-76
2022/09/01 01:00:48;;;;;;;7.33;6.73;;;26.40;62.70;;;;;;5048059;28;21035;-75
2022/09/01 01:03:16;;;;;;;5.37;4.97;;;26.40;62.70;;;;;;5048540;28;20539;-75
2022/09/01 01:05:52;;;;;;;7.67;7.10;;;26.40;62.70;;;;;;5054740;28;20454;-75
2022/09/01 01:08:30;;;;;;;7.50;6.97;;;26.40;62.80;;;;;;5053395;28;20524;-75
2022/09/01 01:10:58;;;;;;;6.60;6.10;;;26.40;62.80;;;;;;5053151;28;20475;-75
2022/09/01 01:13:30;;;;;;;6.57;6.07;;;26.40;62.80;;;;;;5054785;28;20499;-75
2022/09/01 01:15:59;;;;;;;7.30;6.70;;;26.40;62.80;;;;;;5051648;28;20464;-75
2022/09/01 01:18:27;;;;;;;5.90;5.50;;;26.40;62.80;;;;;;5038116;28;20460;-75
2022/09/01 01:24:23;;;;;;;5.13;4.80;;;26.40;62.80;;;;;;5054016;28;20471;-75
2022/09/01 01:26:53;;;;;;;8.00;7.37;;;26.40;62.90;;;;;;5052089;28;20586;-75
2022/09/01 01:29:23;;;;;;;4.23;3.83;;;26.40;62.90;;;;;;5054399;28;20449;-75
2022/09/01 01:31:53;;;;;;;6.83;6.23;;;26.40;62.80;;;;;;5053339;28;20964;-75
2022/09/01 01:34:23;;;;;;;7.20;6.10;;;26.40;62.90;;;;;;5053179;28;20555;-75
2022/09/01 01:36:54;;;;;;;9.17;8.47;;;26.40;62.80;;;;;;5050372;28;20564;-76
2022/09/01 01:39:28;;;;;;;4.13;3.93;;;26.40;62.90;;;;;;5049255;28;20494;-75
2022/09/01 01:41:57;;;;;;;4.97;4.67;;;26.40;62.80;;;;;;5051542;28;20510;-75
2022/09/01 01:44:28;;;;;;;7.03;6.50;;;26.40;62.90;;;;;;5051396;28;20481;-77
2022/09/01 01:47:07;;;;;;;6.60;6.10;;;26.40;62.80;;;;;;5052593;28;20472;-75
2022/09/01 01:49:37;;;;;;;5.63;5.23;;;26.40;62.90;;;;;;5050367;28;20452;-76
2022/09/01 01:52:05;;;;;;;4.90;4.60;;;26.40;62.80;;;;;;5052661;28;20479;-75
2022/09/01 01:54:37;;;;;;;5.70;5.30;;;26.40;62.80;;;;;;5052595;28;20537;-74
2022/09/01 01:57:06;;;;;;;4.87;4.57;;;26.40;62.90;;;;;;5050510;28;20446;-74
2022/09/01 01:59:35;;;;;;;9.80;8.97;;;26.40;62.90;;;;;;5053178;28;20463;-75
2022/09/01 02:02:08;;;;;;;4.70;4.30;;;26.40;62.80;;;;;;5054456;28;20449;-74
2022/09/01 02:04:38;;;;;;;5.57;5.07;;;26.40;62.90;;;;;;5052517;28;20500;-75
2022/09/01 02:07:11;;;;;;;5.27;4.87;;;26.40;62.90;;;;;;5050920;28;20466;-75
2022/09/01 02:09:44;;;;;;;5.47;4.97;;;26.40;62.80;;;;;;5036934;28;20835;-75
2022/09/01 02:12:18;;;;;;;4.73;4.43;;;26.40;62.90;;;;;;5052622;28;20469;-75
2022/09/01 02:14:47;;;;;;;5.83;5.33;;;26.30;62.80;;;;;;5053955;28;20453;-76
2022/09/01 02:17:16;;;;;;;5.40;4.97;;;26.40;62.90;;;;;;5049880;28;20551;-76
2022/09/01 02:19:46;;;;;;;6.57;6.03;;;26.30;62.80;;;;;;5044625;28;20496;-75
2022/09/01 02:22:14;;;;;;;8.37;7.77;;;26.40;62.90;;;;;;5049998;28;20446;-75
2022/09/01 02:24:47;;;;;;;7.40;6.80;;;26.40;63.00;;;;;;5042150;28;20496;-74
2022/09/01 02:27:24;;;;;;;6.07;5.57;;;26.30;63.00;;;;;;5052188;28;20488;-75
2022/09/01 02:29:54;;;;;;;5.50;5.10;;;26.30;62.80;;;;;;5051723;28;20464;-75
2022/09/01 02:32:22;;;;;;;6.70;6.20;;;26.30;62.90;;;;;;5045838;28;20563;-75
2022/09/01 02:34:55;;;;;;;5.90;5.40;;;26.30;62.90;;;;;;5045216;28;20475;-75
2022/09/01 02:37:24;;;;;;;5.70;5.30;;;26.30;63.00;;;;;;5051911;28;20467;-78
2022/09/01 02:39:58;;;;;;;5.60;4.67;;;26.30;63.00;;;;;;5041600;28;20468;-75
2022/09/01 02:42:28;;;;;;;8.30;7.53;;;26.30;63.00;;;;;;5053178;28;20530;-74
2022/09/01 02:44:57;;;;;;;5.07;4.77;;;26.30;63.00;;;;;;5052285;28;21045;-75
2022/09/01 02:47:26;;;;;;;7.37;6.77;;;26.30;63.00;;;;;;5052024;28;20506;-75
2022/09/01 02:49:57;;;;;;;6.83;6.33;;;26.30;63.00;;;;;;5051649;28;20513;-76
2022/09/01 02:52:25;;;;;;;7.80;7.20;;;26.30;62.90;;;;;;5053597;28;20990;-76
2022/09/01 02:54:55;;;;;;;4.90;4.50;;;26.30;63.00;;;;;;5052957;28;20502;-75
2022/09/01 02:57:23;;;;;;;5.10;4.70;;;26.30;63.00;;;;;;5053075;28;20441;-75
2022/09/01 02:59:51;;;;;;;7.40;6.77;;;26.30;62.90;;;;;;5052605;28;20500;-74
2022/09/01 03:02:20;;;;;;;8.00;7.40;;;26.30;63.10;;;;;;5052498;28;20466;-74
2022/09/01 03:04:52;;;;;;;6.17;5.60;;;26.30;63.10;;;;;;5050690;28;20471;-75
2022/09/01 03:07:22;;;;;;;6.97;6.37;;;26.30;63.10;;;;;;5085768;28;20471;-75
2022/09/01 03:09:51;;;;;;;6.73;6.20;;;26.30;63.10;;;;;;5044721;28;20473;-75
2022/09/01 03:12:22;;;;;;;5.17;4.77;;;26.30;63.20;;;;;;5033802;28;20504;-75
2022/09/01 03:14:51;;;;;;;7.60;7.07;;;26.30;63.10;;;;;;5051790;28;20915;-75
2022/09/01 03:17:20;;;;;;;6.53;6.03;;;26.30;63.20;;;;;;5050998;28;20512;-74
2022/09/01 03:19:50;;;;;;;7.70;7.20;;;26.30;63.10;;;;;;5050933;28;20452;-75
2022/09/01 03:22:19;;;;;;;6.47;5.97;;;26.30;63.20;;;;;;5048106;28;21025;-75
2022/09/01 03:24:47;;;;;;;5.60;5.20;;;26.30;63.20;;;;;;5050984;28;20468;-75
2022/09/01 03:27:16;;;;;;;7.17;6.57;;;26.30;63.20;;;;;;5051175;28;20496;-75
2022/09/01 03:29:45;;;;;;;4.80;4.50;;;26.30;63.20;;;;;;5052663;28;20484;-75
2022/09/01 03:32:14;;;;;;;6.70;6.20;;;26.30;63.10;;;;;;5050636;28;20473;-75
2022/09/01 03:34:42;;;;;;;6.63;6.13;;;26.30;63.20;;;;;;5050856;28;20469;-75
2022/09/01 03:37:11;;;;;;;9.60;8.80;;;26.30;63.20;;;;;;5051360;28;20469;-75
2022/09/01 03:39:39;;;;;;;4.80;4.50;;;26.20;63.20;;;;;;5051318;28;20822;-75
2022/09/01 03:42:10;;;;;;;5.17;4.77;;;26.30;63.10;;;;;;5047732;28;20469;-76
2022/09/01 03:44:44;;;;;;;7.57;6.73;;;26.30;63.20;;;;;;5070837;28;20489;-75
2022/09/01 03:47:17;;;;;;;6.10;5.70;;;26.30;63.20;;;;;;5050372;28;20465;-75
2022/09/01 03:49:48;;;;;;;7.10;6.60;;;26.30;63.20;;;;;;5051106;28;20459;-75
2022/09/01 03:52:17;;;;;;;8.20;7.60;;;26.20;63.20;;;;;;5037234;28;20470;-76
2022/09/01 03:54:45;;;;;;;8.53;7.93;;;26.20;63.20;;;;;;5031306;28;20466;-75
2022/09/01 03:57:13;;;;;;;5.07;4.77;;;26.20;63.20;;;;;;5043941;28;20874;-75
2022/09/01 03:59:44;;;;;;;6.33;5.80;;;26.20;63.20;;;;;;5052223;28;20450;-74
2022/09/01 04:02:13;;;;;;;6.93;6.33;;;26.20;63.30;;;;;;5049464;28;20471;-75
2022/09/01 04:04:43;;;;;;;7.03;6.43;;;26.20;63.30;;;;;;5051332;28;20482;-76
2022/09/01 04:07:12;;;;;;;7.33;6.77;;;26.20;63.30;;;;;;5050417;28;20464;-75
2022/09/01 04:09:46;;;;;;;7.10;6.60;;;26.20;63.30;;;;;;5050055;28;20800;-75
2022/09/01 04:12:16;;;;;;;5.57;5.20;;;26.20;63.30;;;;;;5049564;28;20857;-75
2022/09/01 04:14:49;;;;;;;7.87;7.30;;;26.20;63.30;;;;;;5049571;28;20897;-75
2022/09/01 04:20:08;;;;;;;5.40;5.00;;;26.20;63.40;;;;;;5044815;28;20460;-74
2022/09/01 04:22:37;;;;;;;6.57;6.07;;;26.20;63.30;;;;;;5050727;28;20516;-74
2022/09/01 04:25:05;;;;;;;9.20;8.50;;;26.20;63.30;;;;;;5050335;28;20464;-75
2022/09/01 04:27:35;;;;;;;6.00;5.60;;;26.20;63.30;;;;;;5050537;28;20985;-75
2022/09/01 04:30:03;;;;;;;7.07;6.57;;;26.20;63.20;;;;;;5043063;28;20526;-75
2022/09/01 04:32:34;;;;;;;5.57;5.17;;;26.20;63.30;;;;;;5038184;28;20470;-75
2022/09/01 04:35:07;;;;;;;7.10;6.60;;;26.20;63.30;;;;;;5050069;28;20511;-75
2022/09/01 04:37:35;;;;;;;6.60;6.10;;;26.20;63.40;;;;;;5050244;28;20465;-75
2022/09/01 04:40:05;;;;;;;5.33;5.03;;;26.20;63.40;;;;;;5050341;28;21062;-75
2022/09/01 04:42:34;;;;;;;4.90;4.60;;;26.20;63.30;;;;;;5043872;28;20472;-75
2022/09/01 04:45:09;;;;;;;6.47;5.93;;;26.20;63.30;;;;;;5030527;28;20917;-76
2022/09/01 04:47:44;;;;;;;8.60;7.90;;;26.20;63.40;;;;;;5030084;28;20824;-76
2022/09/01 04:50:17;;;;;;;5.90;5.50;;;26.20;63.40;;;;;;5040364;28;20548;-75
2022/09/01 04:53:06;;;;;;;5.83;5.43;;;26.20;63.40;;;;;;5051167;28;20963;-75
2022/09/01 04:55:42;;;;;;;5.87;5.53;;;26.20;63.40;;;;;;5052924;28;20487;-75
2022/09/01 04:58:12;;;;;;;6.73;6.23;;;26.20;63.50;;;;;;5054157;28;20534;-75
2022/09/01 05:00:41;;;;;;;7.43;6.83;;;26.10;63.50;;;;;;5054038;28;20456;-75
2022/09/01 05:03:09;;;;;;;5.83;5.33;;;26.10;63.50;;;;;;5051580;28;20463;-77
2022/09/01 05:06:02;;;;;;;6.30;5.80;;;26.10;63.50;;;;;;5054724;28;20463;-76
2022/09/01 05:08:34;;;;;;;5.93;5.53;;;26.10;63.50;;;;;;5051690;28;20529;-74
2022/09/01 05:11:06;;;;;;;7.20;6.63;;;26.10;63.50;;;;;;5053470;28;20920;-75
2022/09/01 05:13:56;;;;;;;6.10;5.67;;;26.10;63.60;;;;;;5054422;28;20508;-76
2022/09/01 05:16:32;;;;;;;5.60;5.20;;;26.10;63.60;;;;;;5053210;28;20518;-75
2022/09/01 05:19:00;;;;;;;4.53;4.30;;;26.10;63.50;;;;;;5040547;28;20461;-75
2022/09/01 05:21:34;;;;;;;6.30;5.90;;;26.10;63.50;;;;;;5051759;28;20448;-75
2022/09/01 05:24:03;;;;;;;6.03;5.63;;;26.10;63.50;;;;;;5053727;28;20855;-75
2022/09/01 05:26:33;;;;;;;4.90;4.60;;;26.10;63.50;;;;;;5053536;28;20576;-74
2022/09/01 05:29:09;;;;;;;6.87;6.37;;;26.10;63.50;;;;;;5052879;28;20457;-75
2022/09/01 05:31:37;;;;;;;7.27;6.73;;;26.10;63.50;;;;;;5048247;28;20454;-75
2022/09/01 05:34:08;;;;;;;8.03;7.43;;;26.10;63.60;;;;;;5053019;28;20510;-75
2022/09/01 05:36:43;;;;;;;5.73;5.33;;;26.10;63.50;;;;;;5054852;28;20454;-75
2022/09/01 05:39:12;;;;;;;8.80;8.00;;;26.10;63.50;;;;;;5044033;28;20518;-75
2022/09/01 05:41:40;;;;;;;4.20;3.90;;;26.10;63.50;;;;;;5044248;28;20556;-75
2022/09/01 05:44:10;;;;;;;8.00;7.40;;;26.10;63.40;;;;;;5033337;28;20485;-75
2022/09/01 05:46:41;;;;;;;5.60;5.20;;;26.10;63.40;;;;;;5043776;28;20484;-75
2022/09/01 05:49:12;;;;;;;5.23;4.70;;;26.10;63.40;;;;;;5051455;28;20461;-75
2022/09/01 05:51:45;;;;;;;7.90;7.20;;;26.10;63.40;;;;;;5048912;28;20458;-74
2022/09/01 05:54:21;;;;;;;6.97;6.43;;;26.10;63.50;;;;;;5053064;28;20472;-75
2022/09/01 05:56:52;;;;;;;4.53;4.27;;;26.10;63.40;;;;;;5052802;28;20536;-75
2022/09/01 05:59:25;;;;;;;6.73;6.13;;;26.10;63.40;;;;;;5053403;28;20478;-75
2022/09/01 06:02:11;;;;;;;4.97;4.60;;;26.10;63.50;;;;;;5070400;28;20977;-75
2022/09/01 06:04:40;;;;;;;8.63;7.93;;;26.10;63.40;;;;;;5051442;28;20464;-75
2022/09/01 06:07:16;;;;;;;6.37;5.90;;;26.10;63.50;;;;;;5050688;28;20510;-75
2022/09/01 06:09:52;;;;;;;5.87;5.47;;;26.10;63.50;;;;;;5052907;28;20473;-75
2022/09/01 06:12:23;;;;;;;5.80;5.30;;;26.10;63.40;;;;;;5051918;28;20866;-75
2022/09/01 06:14:54;;;;;;;6.87;6.37;;;26.10;63.40;;;;;;5043060;28;20476;-74
2022/09/01 06:17:25;;;;;;;6.20;5.70;;;26.10;63.40;;;;;;5049500;28;20587;-75
2022/09/01 06:19:58;;;;;;;5.10;4.70;;;26.10;63.40;;;;;;5050760;28;21147;-75
2022/09/01 06:22:29;;;;;;;5.10;4.70;;;26.10;63.30;;;;;;5050800;28;20461;-75
2022/09/01 06:24:59;;;;;;;5.37;4.97;;;26.10;63.30;;;;;;5045067;28;20465;-76
2022/09/01 06:27:39;;;;;;;6.80;6.30;;;26.10;63.30;;;;;;5049746;28;20914;-75
2022/09/01 06:30:13;;;;;;;6.10;5.57;;;26.10;63.30;;;;;;5050658;28;20468;-75
2022/09/01 06:32:48;;;;;;;5.00;4.70;;;26.10;63.50;;;;;;5043172;28;20471;-75
2022/09/01 06:35:17;;;;;;;4.73;4.43;;;26.10;63.40;;;;;;5044812;28;20567;-76
2022/09/01 06:37:47;;;;;;;5.87;5.47;;;26.10;63.30;;;;;;5049742;28;20519;-74
2022/09/01 06:40:38;;;;;;;6.80;6.30;;;26.10;63.30;;;;;;5049408;28;20556;-76
2022/09/01 06:43:07;;;;;;;5.20;4.87;;;26.10;63.30;;;;;;5049519;28;20464;-76
2022/09/01 06:45:41;;;;;;;5.60;5.20;;;26.20;63.20;;;;;;5049373;28;20475;-79
2022/09/01 06:48:14;;;;;;;5.10;4.73;;;26.20;63.30;;;;;;5038673;28;20479;-78
2022/09/01 06:50:44;;;;;;;5.37;4.97;;;26.20;63.20;;;;;;5046652;28;20468;-76
2022/09/01 06:53:58;;;;;;;5.50;5.10;;;26.20;63.30;;;;;;5049227;28;20549;-76
2022/09/01 06:56:32;;;;;;;5.07;4.70;;;26.20;63.30;;;;;;5047729;28;20472;-75
2022/09/01 06:59:14;;;;;;;4.70;4.40;;;26.20;63.00;;;;;;5047735;28;20548;-77
2022/09/01 07:01:47;;;;;;;5.60;5.20;;;26.20;62.90;;;;;;5047920;28;20467;-74
2022/09/01 07:04:20;;;;;;;5.37;4.97;;;26.30;62.90;;;;;;5045693;28;20472;-76
2022/09/01 07:06:53;;;;;;;4.60;4.30;;;26.30;62.80;;;;;;5049456;28;20460;-76
2022/09/01 07:10:02;;;;;;;4.50;4.20;;;26.30;62.80;;;;;;5049882;28;20942;-76
2022/09/01 07:13:00;;;;;;;5.10;4.70;;;26.30;62.80;;;;;;5047995;28;20979;-77
2022/09/01 07:15:39;;;;;;;4.60;4.30;;;26.30;62.70;;;;;;5049096;28;20572;-77
2022/09/01 07:18:29;;;;;;;4.93;4.63;;;26.30;62.70;;;;;;5048460;28;20514;-79
2022/09/01 07:20:58;;;;;;;4.77;4.47;;;26.30;62.70;;;;;;5049604;28;20896;-78
2022/09/01 07:23:45;;;;;;;5.30;4.90;;;26.30;62.70;;;;;;5049460;28;20460;-76
2022/09/01 07:26:35;;;;;;;4.67;4.37;;;26.30;62.60;;;;;;5080992;28;20499;-78
2022/09/01 07:29:15;;;;;;;4.90;4.60;;;26.30;62.60;;;;;;5081330;28;20468;-78
2022/09/01 07:31:44;;;;;;;4.87;4.47;;;26.30;62.60;;;;;;5043528;28;20843;-77
2022/09/01 07:34:16;;;;;;;4.70;4.40;;;26.40;62.60;;;;;;5042718;28;20449;-78
2022/09/01 07:37:05;;;;;;;4.10;3.80;;;26.30;62.60;;;;;;5049071;28;20462;-78
2022/09/01 07:39:54;;;;;;;5.87;5.47;;;26.40;62.60;;;;;;5079742;28;20466;-78
2022/09/01 07:42:27;;;;;;;5.43;4.90;;;26.40;62.60;;;;;;5048963;28;20459;-79
2022/09/01 07:45:45;;;;;;;4.43;4.13;;;26.40;62.60;;;;;;5046061;28;20475;-77
2022/09/01 07:48:19;;;;;;;4.67;4.37;;;26.40;62.60;;;;;;5045253;28;20469;-79
2022/09/01 07:51:25;;;;;;;4.83;4.43;;;26.40;62.70;;;;;;5049536;28;20462;-76
2022/09/01 07:54:09;;;;;;;5.17;4.87;;;26.40;62.70;;;;;;5046516;28;20558;-83
2022/09/01 07:56:39;;;;;;;5.37;5.07;;;26.40;62.70;;;;;;5064478;28;20461;-79
2022/09/01 07:59:13;;;;;;;4.70;4.40;;;26.40;62.70;;;;;;5047355;28;20518;-77
2022/09/01 08:01:54;;;;;;;5.00;4.60;;;26.40;62.70;;;;;;5079082;28;20554;-78
2022/09/01 08:04:23;;;;;;;4.63;4.33;;;26.40;62.70;;;;;;5041648;28;20465;-77
2022/09/01 08:06:55;;;;;;;4.90;4.60;;;26.40;62.70;;;;;;5045796;28;20500;-76
2022/09/01 08:09:24;;;;;;;4.77;4.37;;;26.40;62.60;;;;;;5047060;28;20543;-78
2022/09/01 08:12:06;;;;;;;5.40;5.10;;;26.40;62.60;;;;;;5047344;28;20549;-78
2022/09/01 08:14:46;;;;;;;4.60;4.30;;;26.40;62.60;;;;;;5044288;28;20547;-76
2022/09/01 08:17:15;;;;;;;4.80;4.50;;;26.40;62.60;;;;;;5061691;28;20486;-77
2022/09/01 08:20:07;;;;;;;4.07;3.77;;;26.40;62.60;;;;;;5047239;28;20460;-77
2022/09/01 08:22:57;;;;;;;5.37;4.87;;;26.40;62.60;;;;;;5047304;28;20472;-80
2022/09/01 08:25:33;;;;;;;4.83;4.43;;;26.40;62.50;;;;;;5077281;28;21248;-78
2022/09/01 08:28:01;;;;;;;4.97;4.67;;;26.40;62.50;;;;;;5046689;28;20466;-78
2022/09/01 08:30:32;;;;;;;4.07;3.80;;;26.40;62.50;;;;;;5049266;28;20853;-78
2022/09/01 08:33:01;;;;;;;4.57;4.17;;;26.40;62.50;;;;;;5050973;28;20544;-78
2022/09/01 08:35:40;;;;;;;6.30;4.87;;;26.40;62.50;;;;;;5046315;28;20485;-77
2022/09/01 08:38:09;;;;;;;6.07;5.07;;;26.40;62.50;;;;;;5064275;28;20512;-77
2022/09/01 08:40:38;;;;;;;5.23;4.83;;;26.40;62.50;;;;;;5051077;28;20475;-77
2022/09/01 08:43:16;;;;;;;5.73;5.07;;;26.40;62.50;;;;;;5051360;28;20813;-79
2022/09/01 08:45:52;;;;;;;5.90;5.17;;;26.50;62.50;;;;;;5066608;28;20474;-76
2022/09/01 08:48:27;;;;;;;5.03;4.43;;;26.50;62.60;;;;;;5042027;28;20475;-79
2022/09/01 08:54:51;;;;;;;5.27;4.70;;;26.50;62.60;;;;;;5063235;28;20462;-76
2022/09/01 08:57:26;;;;;;;5.30;4.37;;;26.40;62.60;;;;;;5049157;28;20824;-75
2022/09/01 09:00:17;;;;;;;6.20;4.70;;;26.40;62.60;;;;;;5054096;28;20449;-74
2022/09/01 09:02:57;;;;;;;5.70;4.27;;;26.40;62.60;;;;;;5054378;28;20476;-76
2022/09/01 09:05:43;;;;;;;5.10;4.60;;;26.40;62.60;;;;;;5051005;28;20845;-73
2022/09/01 09:08:25;;;;;;;4.60;4.13;;;26.50;62.60;;;;;;5055803;28;20461;-74
2022/09/01 09:11:04;;;;;;;5.10;4.60;;;26.50;62.60;;;;;;5053082;28;20456;-80
2022/09/01 09:13:46;;;;;;;5.87;5.37;;;26.50;62.60;;;;;;5051621;28;20535;-73
2022/09/01 09:16:29;;;;;;;6.13;4.53;;;26.40;62.60;;;;;;5049849;28;20921;-77
2022/09/01 09:19:04;;;;;;;4.53;4.17;;;26.50;62.50;;;;;;5054549;28;20528;-74
2022/09/01 09:21:35;;;;;;;6.47;5.13;;;26.50;62.50;;;;;;5051137;28;20547;-73
2022/09/01 09:24:11;;;;;;;4.97;4.33;;;26.50;62.50;;;;;;5053010;28;20485;-77
2022/09/01 09:26:39;;;;;;;4.50;4.10;;;26.50;62.40;;;;;;5056032;28;20481;-75
2022/09/01 09:29:11;;;;;;;5.27;4.83;;;26.50;62.40;;;;;;5046293;28;21231;-78
2022/09/01 09:31:47;;;;;;;5.60;5.13;;;26.50;62.40;;;;;;5044259;28;21003;-77
2022/09/01 09:34:32;;;;;;;4.87;4.47;;;26.50;62.30;;;;;;5048779;28;20961;-75
2022/09/01 09:37:20;;;;;;;5.20;4.40;;;26.50;62.30;;;;;;5051280;28;20868;-74
2022/09/01 09:40:08;;;;;;;4.60;3.97;;;26.50;62.30;;;;;;5052149;28;20469;-74
2022/09/01 09:42:39;;;;;;;4.93;4.40;;;26.50;62.30;;;;;;5056250;28;20454;-73
2022/09/01 09:45:22;;;;;;;4.50;4.20;;;26.50;62.30;;;;;;5048766;28;20852;-74
2022/09/01 09:47:51;;;;;;;3.70;3.40;;;26.60;62.30;;;;;;5050993;28;20457;-76
2022/09/01 09:50:25;;;;;;;5.30;4.80;;;26.60;62.30;;;;;;5046514;28;20542;-74
2022/09/01 09:53:11;;;;;;;4.40;4.00;;;26.60;62.30;;;;;;5047950;28;20444;-75
2022/09/01 09:55:53;;;;;;;5.07;4.60;;;26.60;62.20;;;;;;5047222;28;20550;-74
2022/09/01 09:58:26;;;;;;;3.47;3.27;;;26.60;62.20;;;;;;5051849;28;21013;-73
2022/09/01 10:01:14;;;;;;;4.40;4.00;;;26.60;62.20;;;;;;5049181;28;20481;-73
2022/09/01 10:04:34;;;;;;;4.03;3.70;;;26.60;62.20;;;;;;5051407;28;20467;-76
2022/09/01 10:07:27;;;;;;;4.50;4.20;;;26.60;62.20;;;;;;5046264;28;20541;-74
2022/09/01 10:09:57;;;;;;;4.00;3.70;;;26.60;62.30;;;;;;5049960;28;20921;-74
2022/09/01 10:12:26;;;;;;;4.70;4.30;;;26.60;62.40;;;;;;5052639;28;20507;-76
2022/09/01 10:15:00;;;;;;;5.90;5.40;;;26.60;62.60;;;;;;5052417;28;20875;-74
2022/09/01 10:17:42;;;;;;;7.63;4.73;;;26.60;62.90;;;;;;5050473;28;20580;-74
2022/09/01 10:20:17;;;;;;;6.40;5.43;;;26.60;63.00;;;;;;5052344;28;20497;-74
2022/09/01 10:22:47;;;;;;;6.90;4.83;;;26.60;63.00;;;;;;5046750;28;20477;-75
2022/09/01 10:25:20;;;;;;;6.83;5.10;;;26.60;63.10;;;;;;5050363;28;20838;-79
2022/09/01 10:27:52;;;;;;;6.33;4.93;;;26.60;63.20;;;;;;5045538;28;20458;-74
2022/09/01 10:30:22;;;;;;;5.83;5.33;;;26.60;63.30;;;;;;5047798;28;20446;-78
2022/09/01 10:32:53;;;;;;;5.50;5.07;;;26.60;63.30;;;;;;5040308;28;20472;-76
2022/09/01 10:35:26;;;;;;;5.87;5.30;;;26.60;63.30;;;;;;5041939;28;20463;-75
2022/09/01 10:37:57;;;;;;;6.87;4.97;;;26.60;63.40;;;;;;5047365;28;20752;-75
2022/09/01 10:40:39;;;;;;;7.10;5.73;;;26.70;63.30;;;;;;5051068;28;20449;-75
2022/09/01 10:43:37;;;;;;;8.00;4.93;;;26.70;63.30;;;;;;5047238;28;20540;-75
2022/09/01 10:46:50;;;;;;;6.43;4.63;;;26.70;63.30;;;;;;5051130;28;20565;-78
2022/09/01 10:49:42;;;;;;;5.50;5.00;;;26.70;63.30;;;;;;5041438;28;20825;-75
2022/09/01 10:52:56;;;;;;;5.07;4.67;;;26.70;63.30;;;;;;5049473;28;20994;-78
2022/09/01 10:55:42;;;;;;;6.23;5.67;;;26.70;63.20;;;;;;5046549;28;21022;-75
2022/09/01 11:02:14;;;;;;;5.10;4.70;;;26.70;63.10;;;;;;5043330;28;20788;-74
2022/09/01 11:05:15;;;;;;;5.27;4.80;;;26.70;63.10;;;;;;5050097;28;20457;-74
2022/09/01 11:07:45;;;;;;;5.43;4.57;;;26.70;63.00;;;;;;5050106;28;20462;-76
2022/09/01 11:10:55;;;;;;;5.63;5.10;;;26.70;63.00;;;;;;5048898;28;20983;-74
2022/09/01 11:13:42;;;;;;;5.23;4.73;;;26.80;62.90;;;;;;5048222;28;21014;-73
2022/09/01 11:16:32;;;;;;;6.07;4.63;;;26.80;62.80;;;;;;5048662;28;20505;-74
2022/09/01 11:19:40;;;;;;;5.23;4.73;;;26.80;62.70;;;;;;5047916;28;20458;-74
2022/09/01 11:22:16;;;;;;;6.50;5.13;;;26.80;62.60;;;;;;5048586;28;20488;-72
2022/09/01 11:24:48;;;;;;;5.10;4.70;;;26.80;62.60;;;;;;5051023;28;20462;-74
2022/09/01 11:27:58;;;;;;;4.90;4.50;;;26.80;62.60;;;;;;5049769;28;20561;-77
2022/09/01 11:30:37;;;;;;;5.80;4.93;;;26.80;62.50;;;;;;5032433;28;20519;-79
2022/09/01 11:33:22;;;;;;;5.00;4.60;;;26.80;62.50;;;;;;5047055;28;20462;-79
2022/09/01 11:36:00;;;;;;;5.03;4.63;;;26.80;62.50;;;;;;5046559;28;20460;-80
2022/09/01 11:38:43;;;;;;;6.30;5.10;;;26.80;62.40;;;;;;5050871;28;20454;-78
2022/09/01 11:41:24;;;;;;;4.23;3.93;;;26.90;62.30;;;;;;5052223;28;20795;-78
2022/09/01 11:44:00;;;;;;;5.97;5.00;;;26.90;62.30;;;;;;5052123;28;20491;-78
2022/09/01 11:46:33;;;;;;;5.47;4.40;;;26.90;62.20;;;;;;5051598;28;20444;-78
2022/09/01 11:49:07;;;;;;;4.47;4.17;;;26.90;62.20;;;;;;5051441;28;20454;-78
2022/09/01 11:51:43;;;;;;;5.43;5.03;;;26.90;62.20;;;;;;5035410;28;20493;-78
2022/09/01 11:54:12;;;;;;;4.77;4.37;;;26.90;62.10;;;;;;5048247;28;20457;-78
2022/09/01 11:56:40;;;;;;;4.77;4.30;;;26.90;62.00;;;;;;5037217;28;20581;-78
2022/09/01 11:59:11;;;;;;;5.60;5.20;;;26.90;62.00;;;;;;5049024;28;20563;-78
2022/09/01 12:01:40;;;;;;;4.90;4.57;;;26.90;61.90;;;;;;5048648;28;20937;-78
2022/09/01 12:04:22;;;;;;;5.23;4.57;;;27.00;61.80;;;;;;5042235;28;20965;-78
2022/09/01 12:06:56;;;;;;;5.10;4.70;;;27.00;61.80;;;;;;5043586;28;20466;-75
2022/09/01 12:09:33;;;;;;;7.43;4.70;;;27.00;61.70;;;;;;5048496;28;20467;-75
2022/09/01 12:12:01;;;;;;;4.03;3.77;;;27.00;61.70;;;;;;5048781;28;20461;-79
2022/09/01 12:14:31;;;;;;;5.30;4.63;;;27.00;61.60;;;;;;5049804;28;20496;-79
2022/09/01 12:17:21;;;;;;;4.03;3.80;;;27.00;61.60;;;;;;5046453;28;20516;-79
2022/09/01 12:19:49;;;;;;;5.00;4.70;;;27.00;61.50;;;;;;5044093;28;20458;-79
2022/09/01 12:22:20;;;;;;;4.57;4.27;;;27.00;61.50;;;;;;5049081;28;21448;-80
2022/09/01 12:24:51;;;;;;;3.77;3.57;;;27.00;61.40;;;;;;5041986;28;20455;-78
2022/09/01 12:27:20;;;;;;;4.97;4.57;;;27.00;61.40;;;;;;5048693;28;20572;-78
2022/09/01 12:29:50;;;;;;;4.40;4.10;;;27.00;61.40;;;;;;5050334;28;20556;-79
2022/09/01 12:32:19;;;;;;;4.40;4.00;;;27.00;61.30;;;;;;5049150;28;20819;-79
2022/09/01 12:34:59;;;;;;;5.10;4.80;;;27.00;61.30;;;;;;5050550;28;20456;-78
2022/09/01 12:37:29;;;;;;;4.83;4.40;;;27.00;61.20;;;;;;5051019;28;20532;-78
2022/09/01 12:39:59;;;;;;;4.37;4.07;;;27.00;61.30;;;;;;5048440;28;20462;-78
2022/09/01 12:42:29;;;;;;;4.10;3.80;;;27.00;61.20;;;;;;5051034;28;20452;-79
2022/09/01 12:45:13;;;;;;;4.30;4.00;;;27.00;61.20;;;;;;5049703;28;20489;-78
2022/09/01 12:47:47;;;;;;;4.67;4.37;;;27.10;61.10;;;;;;5051212;28;20427;-80
2022/09/01 12:50:49;;;;;;;4.73;4.33;;;27.10;61.00;;;;;;5048937;28;20475;-80
2022/09/01 12:53:26;;;;;;;4.90;4.00;;;27.10;61.00;;;;;;4989626;28;20459;-79
2022/09/01 12:56:19;;;;;;;4.57;4.27;;;27.10;61.00;;;;;;5043739;28;20455;-80
2022/09/01 12:58:52;;;;;;;4.30;4.00;;;27.10;60.80;;;;;;5048601;28;20561;-79
2022/09/01 13:01:36;;;;;;;9.93;4.37;;;27.10;60.90;;;;;;5046178;28;20451;-79
2022/09/01 13:04:23;;;;;;;4.20;3.90;;;27.10;61.00;;;;;;5049316;28;20472;-80
2022/09/01 13:06:52;;;;;;;4.73;4.20;;;27.10;60.90;;;;;;5051080;28;20969;-79
2022/09/01 13:09:20;;;;;;;5.03;4.63;;;27.10;60.80;;;;;;5050918;28;20515;-80
2022/09/01 13:11:49;;;;;;;4.30;4.00;;;27.10;60.90;;;;;;5046392;28;20499;-80
2022/09/01 13:14:34;;;;;;;5.33;4.63;;;27.10;60.90;;;;;;5049240;28;20449;-79
2022/09/01 13:17:04;;;;;;;4.70;4.30;;;27.10;61.00;;;;;;5050132;28;20530;-80
2022/09/01 13:19:41;;;;;;;5.27;4.87;;;27.10;61.00;;;;;;5051103;28;20529;-79
2022/09/01 13:22:09;;;;;;;4.60;4.20;;;27.10;61.00;;;;;;5053578;28;20492;-79
2022/09/01 13:24:38;;;;;;;4.77;4.33;;;27.10;61.00;;;;;;5053588;28;21994;-79
2022/09/01 13:27:06;;;;;;;5.07;4.50;;;27.10;61.00;;;;;;5053388;28;20488;-78
2022/09/01 13:29:51;;;;;;;4.83;4.47;;;27.10;61.00;;;;;;5043079;28;20457;-79
2022/09/01 13:32:22;;;;;;;5.83;4.63;;;27.10;61.00;;;;;;5049021;28;20487;-79
2022/09/01 13:34:52;;;;;;;8.70;5.20;;;27.10;61.00;;;;;;5052569;28;20849;-78
2022/09/01 13:37:21;;;;;;;8.60;5.63;;;27.10;61.00;;;;;;5051047;28;20550;-76
2022/09/01 13:39:50;;;;;;;5.47;4.93;;;27.10;61.00;;;;;;5053890;28;20872;-78
2022/09/01 13:42:18;;;;;;;5.97;4.70;;;27.10;60.90;;;;;;5049979;28;20494;-80